Time;durP1;ratioP1;P1;durP2;ratioP2;P2;SDS_P1;SDS_P2;PMS_P1;PMS_P2;Temp;Humidity;BMP_temperature;BMP_pressure;BME280_temperature;BME280_humidity;BME280_pressure;Samples;Min_cycle;Max_cycle;Signal;HPM_P1;HPM_P2
2022/04/23 00:00:29;;;;;;;2.83;1.98;;;16.00;60.80;;;;;;5024180;28;20045;-74
2022/04/23 00:03:01;;;;;;;2.58;2.08;;;16.00;60.90;;;;;;5022693;28;20062;-74
2022/04/23 00:05:29;;;;;;;3.03;2.10;;;16.00;61.00;;;;;;5017842;28;20452;-74
2022/04/23 00:08:11;;;;;;;3.55;2.10;;;16.00;61.80;;;;;;5004116;28;20061;-74
2022/04/23 00:10:38;;;;;;;3.15;2.45;;;16.00;61.00;;;;;;5017830;28;20042;-74
2022/04/23 00:13:10;;;;;;;;;;;16.00;61.10;;;;;;5019317;28;20036;-74
2022/04/23 00:15:39;;;;;;;2.80;2.20;;;16.00;61.10;;;;;;5018819;28;19968;-74
2022/04/23 00:18:10;;;;;;;2.95;2.15;;;16.00;61.00;;;;;;4991885;28;20412;-74
2022/04/23 00:20:38;;;;;;;2.97;2.35;;;16.00;61.10;;;;;;5016554;28;20088;-73
2022/04/23 00:23:11;;;;;;;2.75;2.03;;;16.00;61.20;;;;;;5013152;28;20045;-73
2022/04/23 00:25:38;;;;;;;2.65;2.15;;;16.00;61.10;;;;;;5017098;28;20140;-74
2022/04/23 00:28:10;;;;;;;3.08;2.15;;;16.00;61.10;;;;;;5020066;28;20045;-74
2022/04/23 00:30:38;;;;;;;3.65;2.10;;;16.00;61.10;;;;;;5016976;28;20053;-73
2022/04/23 00:33:09;;;;;;;;;;;16.00;61.10;;;;;;5019836;28;20777;-74
2022/04/23 00:35:39;;;;;;;2.85;2.22;;;16.10;61.20;;;;;;5017436;28;19925;-74
2022/04/23 00:38:11;;;;;;;2.53;2.20;;;16.00;61.00;;;;;;5019920;28;20053;-74
2022/04/23 00:40:39;;;;;;;2.60;2.10;;;16.00;61.00;;;;;;5016551;28;20049;-74
2022/04/23 00:43:24;;;;;;;2.70;2.20;;;16.00;61.00;;;;;;4996390;28;20042;-74
2022/04/23 00:45:59;;;;;;;3.88;2.20;;;16.00;61.00;;;;;;5018740;28;20124;-74
2022/04/23 00:48:44;;;;;;;3.17;2.35;;;16.10;61.20;;;;;;5017550;28;20444;-73
2022/04/23 00:51:13;;;;;;;3.22;2.28;;;16.00;61.10;;;;;;5015898;28;20117;-71
2022/04/23 00:53:49;;;;;;;3.00;2.70;;;16.00;61.10;;;;;;5001877;28;20053;-74
2022/04/23 00:56:29;;;;;;;2.70;2.25;;;16.00;61.10;;;;;;5013308;28;20405;-74
2022/04/23 00:59:11;;;;;;;2.92;2.30;;;16.00;61.20;;;;;;5018904;28;20041;-74
2022/04/23 01:01:40;;;;;;;2.63;2.20;;;16.00;61.10;;;;;;5018508;28;20099;-74
2022/04/23 01:04:12;;;;;;;2.67;2.30;;;16.00;61.10;;;;;;5018235;28;20363;-74
2022/04/23 01:06:46;;;;;;;3.25;2.40;;;16.00;61.10;;;;;;5017730;28;20052;-74
2022/04/23 01:09:24;;;;;;;3.10;2.50;;;16.00;61.10;;;;;;5022690;28;20063;-74
2022/04/23 01:11:54;;;;;;;3.97;2.20;;;16.00;61.10;;;;;;5020003;28;20053;-75
2022/04/23 01:14:30;;;;;;;2.83;2.10;;;16.00;61.50;;;;;;5001244;28;20053;-73
2022/04/23 01:16:57;;;;;;;3.00;2.28;;;16.00;61.10;;;;;;5025342;28;20041;-74
2022/04/23 01:19:24;;;;;;;3.53;2.50;;;16.00;61.00;;;;;;5000158;28;20141;-74
2022/04/23 01:21:52;;;;;;;2.83;2.28;;;16.00;61.10;;;;;;5019079;28;20054;-74
2022/04/23 01:24:34;;;;;;;;;;;16.00;61.10;;;;;;5006214;28;20045;-74
2022/04/23 01:27:05;;;;;;;3.42;2.38;;;16.00;61.10;;;;;;5015631;28;19936;-74
2022/04/23 01:29:48;;;;;;;2.72;2.20;;;16.00;61.00;;;;;;5017706;28;20041;-74
2022/04/23 01:32:34;;;;;;;2.72;2.30;;;15.90;60.90;;;;;;5014902;28;20060;-73
2022/04/23 01:35:01;;;;;;;3.00;2.30;;;16.00;61.00;;;;;;5021714;28;20042;-74
2022/04/23 01:37:43;;;;;;;3.53;2.50;;;16.00;61.10;;;;;;4995136;28;20049;-74
2022/04/23 01:40:11;;;;;;;2.50;2.13;;;16.00;61.00;;;;;;5021804;28;20532;-74
2022/04/23 01:42:47;;;;;;;3.35;2.30;;;16.00;61.00;;;;;;5000939;28;20049;-74
2022/04/23 01:45:23;;;;;;;2.78;2.17;;;16.00;61.00;;;;;;5020164;28;20454;-74
2022/04/23 01:47:50;;;;;;;3.35;2.30;;;15.90;60.90;;;;;;4996821;28;20037;-74
2022/04/23 01:50:29;;;;;;;3.05;2.00;;;16.00;61.00;;;;;;5019484;28;20120;-74
2022/04/23 01:52:57;;;;;;;3.10;2.35;;;15.90;60.90;;;;;;4998711;28;20927;-74
2022/04/23 01:55:28;;;;;;;4.32;2.47;;;16.00;61.10;;;;;;5017216;28;20049;-74
2022/04/23 01:57:57;;;;;;;2.40;2.20;;;16.00;61.10;;;;;;5012343;28;20060;-74
2022/04/23 02:00:26;;;;;;;3.53;2.35;;;15.90;61.00;;;;;;5026630;28;20041;-74
2022/04/23 02:02:53;;;;;;;4.00;2.30;;;15.90;60.90;;;;;;4994111;28;20058;-74
2022/04/23 02:05:29;;;;;;;3.05;2.63;;;15.90;60.90;;;;;;4991073;28;20081;-73
2022/04/23 02:07:57;;;;;;;2.83;2.30;;;15.90;60.90;;;;;;4999064;28;20053;-74
2022/04/23 02:10:24;;;;;;;2.85;2.40;;;15.90;61.00;;;;;;5007100;28;20069;-74
2022/04/23 02:12:51;;;;;;;2.92;2.40;;;15.90;60.90;;;;;;5003774;28;20485;-74
2022/04/23 02:15:20;;;;;;;2.53;2.30;;;15.90;60.90;;;;;;5001283;28;20107;-74
2022/04/23 02:17:49;;;;;;;2.38;2.17;;;15.90;60.90;;;;;;4999201;28;20485;-73
2022/04/23 02:20:31;;;;;;;2.70;2.30;;;15.90;60.90;;;;;;4998813;28;20045;-74
2022/04/23 02:23:11;;;;;;;2.83;2.40;;;15.90;60.90;;;;;;4998311;28;20529;-73
2022/04/23 02:25:38;;;;;;;2.55;2.13;;;15.90;60.90;;;;;;4996583;28;20065;-74
2022/04/23 02:28:11;;;;;;;3.00;2.28;;;15.90;60.90;;;;;;5002650;28;20088;-74
2022/04/23 02:30:41;;;;;;;3.10;2.50;;;15.90;61.00;;;;;;4981207;28;20400;-74
2022/04/23 02:33:09;;;;;;;3.03;2.60;;;15.90;60.90;;;;;;5005738;28;20034;-74
2022/04/23 02:35:36;;;;;;;3.60;2.33;;;15.90;61.00;;;;;;4997006;28;20053;-74
2022/04/23 02:38:03;;;;;;;2.78;2.20;;;15.90;60.90;;;;;;5001835;28;20540;-73
2022/04/23 02:40:32;;;;;;;2.72;2.33;;;15.90;60.90;;;;;;4999446;28;20088;-73
2022/04/23 02:43:12;;;;;;;4.28;2.75;;;15.90;60.90;;;;;;4998231;28;20046;-74
2022/04/23 02:45:39;;;;;;;2.70;2.40;;;15.80;60.90;;;;;;5002880;28;20041;-74
2022/04/23 02:48:10;;;;;;;2.85;2.53;;;15.90;61.10;;;;;;4997315;28;20069;-74
2022/04/23 02:50:39;;;;;;;2.80;2.20;;;15.90;61.10;;;;;;5003743;28;20489;-74
2022/04/23 02:53:10;;;;;;;2.92;2.53;;;15.90;61.00;;;;;;4983882;28;20737;-74
2022/04/23 02:55:46;;;;;;;3.03;2.30;;;15.90;61.10;;;;;;4999595;28;20054;-74
2022/04/23 02:58:15;;;;;;;3.10;2.33;;;15.90;61.00;;;;;;4997007;28;20124;-73
2022/04/23 03:00:48;;;;;;;3.33;2.53;;;15.90;60.90;;;;;;5001365;28;20041;-73
2022/04/23 03:03:28;;;;;;;2.90;2.10;;;15.90;60.90;;;;;;5008955;28;20194;-74
2022/04/23 03:05:55;;;;;;;2.63;2.17;;;15.90;60.80;;;;;;5012351;28;20592;-74
2022/04/23 03:08:24;;;;;;;3.00;2.50;;;15.90;60.80;;;;;;5012927;28;20092;-74
2022/04/23 03:10:52;;;;;;;3.58;2.50;;;15.90;60.70;;;;;;5026178;28;20065;-74
2022/04/23 03:13:23;;;;;;;2.80;2.35;;;15.90;60.80;;;;;;5016615;28;20116;-73
2022/04/23 03:15:53;;;;;;;2.95;2.30;;;15.90;60.80;;;;;;5000092;28;20389;-73
2022/04/23 03:18:21;;;;;;;2.75;2.50;;;15.90;60.80;;;;;;4994341;28;20045;-74
2022/04/23 03:20:48;;;;;;;3.10;2.45;;;16.00;60.80;;;;;;5026421;28;20366;-74
2022/04/23 03:23:24;;;;;;;3.25;2.30;;;15.90;60.80;;;;;;5011115;28;20029;-74
2022/04/23 03:25:52;;;;;;;4.10;2.53;;;15.90;60.80;;;;;;5018580;28;20046;-74
2022/04/23 03:28:20;;;;;;;3.03;2.40;;;15.90;61.00;;;;;;5000454;28;20553;-74
2022/04/23 03:30:47;;;;;;;5.05;2.63;;;15.80;60.70;;;;;;5019842;28;20120;-73
2022/04/23 03:33:18;;;;;;;3.10;2.55;;;15.90;60.80;;;;;;5020464;28;20040;-74
2022/04/23 03:35:48;;;;;;;2.70;2.40;;;15.90;60.80;;;;;;5018876;28;20104;-73
2022/04/23 03:38:21;;;;;;;3.35;2.78;;;15.90;60.70;;;;;;5018799;28;20076;-74
2022/04/23 03:40:53;;;;;;;3.67;2.78;;;15.90;60.80;;;;;;5020789;28;20082;-74
2022/04/23 03:43:39;;;;;;;3.63;2.70;;;15.90;60.90;;;;;;5015378;28;20526;-73
2022/04/23 03:46:07;;;;;;;3.88;2.75;;;15.80;60.70;;;;;;5015693;28;20047;-74
2022/04/23 03:48:40;;;;;;;2.97;2.50;;;15.80;60.70;;;;;;5021641;28;20042;-74
2022/04/23 03:51:10;;;;;;;2.85;2.50;;;15.80;60.70;;;;;;5013597;28;20050;-74
2022/04/23 03:53:37;;;;;;;3.22;2.70;;;15.80;60.70;;;;;;5021088;28;20048;-74
2022/04/23 03:56:04;;;;;;;2.97;2.45;;;15.80;60.70;;;;;;5016324;28;20034;-73
2022/04/23 03:58:43;;;;;;;3.28;2.63;;;15.90;60.80;;;;;;5015986;28;20042;-74
2022/04/23 04:01:09;;;;;;;2.80;2.53;;;15.80;60.70;;;;;;5018068;28;20073;-74
2022/04/23 04:03:43;;;;;;;2.92;2.50;;;15.80;60.80;;;;;;5018224;28;20489;-73
2022/04/23 04:06:12;;;;;;;3.38;2.60;;;15.80;60.70;;;;;;5024627;28;20049;-73
2022/04/23 04:08:39;;;;;;;3.13;2.72;;;15.80;60.70;;;;;;5021553;28;20049;-74
2022/04/23 04:11:09;;;;;;;3.22;2.58;;;15.90;60.90;;;;;;4996278;28;20137;-74
2022/04/23 04:13:36;;;;;;;3.22;2.75;;;15.80;60.80;;;;;;5019068;28;20072;-73
2022/04/23 04:16:12;;;;;;;3.30;3.00;;;15.90;60.90;;;;;;5005612;28;20516;-74
2022/04/23 04:18:39;;;;;;;3.83;2.83;;;15.80;60.70;;;;;;5019675;28;20030;-74
2022/04/23 04:21:10;;;;;;;3.00;2.60;;;15.80;60.70;;;;;;4998342;28;20408;-73
2022/04/23 04:23:36;;;;;;;3.88;2.88;;;15.80;60.80;;;;;;5015001;28;20046;-74
2022/04/23 04:26:10;;;;;;;3.45;2.85;;;15.80;60.90;;;;;;5017229;28;20045;-74
2022/04/23 04:28:39;;;;;;;3.58;2.80;;;15.80;60.80;;;;;;5015659;28;20060;-73
2022/04/23 04:33:56;;;;;;;3.40;2.78;;;15.80;60.90;;;;;;5017693;28;20512;-74
2022/04/23 04:36:25;;;;;;;3.67;3.17;;;15.80;60.90;;;;;;5022962;28;20041;-74
2022/04/23 04:38:52;;;;;;;2.90;2.60;;;15.80;60.90;;;;;;5018549;28;20809;-74
2022/04/23 04:41:19;;;;;;;3.63;3.10;;;15.80;60.90;;;;;;5022345;28;20099;-74
2022/04/23 04:43:47;;;;;;;3.13;2.83;;;15.80;60.90;;;;;;5001282;28;20041;-73
2022/04/23 04:46:19;;;;;;;4.15;3.10;;;15.80;60.90;;;;;;5023649;28;20042;-74
2022/04/23 04:48:48;;;;;;;2.97;2.67;;;15.80;60.90;;;;;;5014830;28;20144;-74
2022/04/23 04:51:16;;;;;;;3.30;2.90;;;15.80;60.90;;;;;;4996614;28;20100;-73
2022/04/23 04:53:53;;;;;;;3.88;2.83;;;15.80;60.90;;;;;;5022414;28;20033;-73
2022/04/23 04:56:38;;;;;;;2.92;2.50;;;15.80;61.00;;;;;;5027192;28;20053;-71
2022/04/23 04:59:05;;;;;;;3.17;2.80;;;15.80;60.90;;;;;;5015787;28;20049;-73
2022/04/23 05:01:51;;;;;;;3.58;3.10;;;15.80;60.90;;;;;;5020160;28;20497;-72
2022/04/23 05:04:21;;;;;;;3.43;2.60;;;15.80;60.90;;;;;;5023721;28;20045;-72
2022/04/23 05:06:48;;;;;;;3.40;2.97;;;15.80;60.90;;;;;;5022220;28;20383;-72
2022/04/23 05:09:22;;;;;;;3.45;2.88;;;15.80;61.00;;;;;;5025433;28;20099;-72
2022/04/23 05:12:08;;;;;;;3.92;2.97;;;15.80;61.00;;;;;;5022035;28;20486;-72
2022/04/23 05:14:35;;;;;;;3.05;2.70;;;15.80;61.80;;;;;;5032809;28;20111;-72
2022/04/23 05:17:09;;;;;;;3.70;3.15;;;15.80;61.00;;;;;;5032051;28;20059;-72
2022/04/23 05:19:37;;;;;;;3.35;2.88;;;15.80;61.10;;;;;;5009348;28;20076;-72
2022/04/23 05:22:07;;;;;;;3.78;3.08;;;15.70;61.00;;;;;;5020691;28;20069;-72
2022/04/23 05:24:45;;;;;;;3.55;3.20;;;15.80;61.10;;;;;;4998137;28;20042;-72
2022/04/23 05:27:15;;;;;;;4.30;3.08;;;15.70;60.90;;;;;;5021802;28;20111;-72
2022/04/23 05:29:45;;;;;;;3.05;2.58;;;15.70;61.00;;;;;;5019034;28;20052;-72
2022/04/23 05:32:13;;;;;;;3.28;2.88;;;15.80;61.10;;;;;;5022922;28;20037;-72
2022/04/23 05:34:40;;;;;;;4.10;3.30;;;15.80;61.20;;;;;;5022179;28;20046;-72
2022/04/23 05:37:10;;;;;;;4.65;3.00;;;15.80;61.20;;;;;;5021062;28;20498;-72
2022/04/23 05:39:40;;;;;;;5.10;3.75;;;15.80;61.20;;;;;;5020164;28;20073;-72
2022/04/23 05:42:07;;;;;;;4.38;3.28;;;15.80;61.40;;;;;;5003027;28;20236;-73
2022/04/23 05:44:49;;;;;;;4.10;3.10;;;15.80;61.30;;;;;;5021448;28;20037;-72
2022/04/23 05:47:22;;;;;;;4.45;3.40;;;15.80;61.20;;;;;;5003617;28;20735;-73
2022/04/23 05:49:55;;;;;;;3.55;3.25;;;15.80;61.40;;;;;;5028012;28;20204;-73
2022/04/23 05:52:22;;;;;;;4.03;3.33;;;15.80;61.40;;;;;;5020998;28;20088;-73
2022/04/23 05:54:49;;;;;;;4.57;3.55;;;15.70;61.30;;;;;;5018075;28;20087;-72
2022/04/23 05:57:17;;;;;;;4.15;3.50;;;15.80;61.50;;;;;;5019486;28;20045;-73
2022/04/23 05:59:48;;;;;;;3.90;3.37;;;15.80;61.40;;;;;;5020295;28;20061;-72
2022/04/23 06:02:18;;;;;;;4.13;3.70;;;15.70;61.40;;;;;;5020138;28;20041;-72
2022/04/23 06:05:02;;;;;;;4.20;3.60;;;15.90;62.50;;;;;;5021420;28;20053;-73
2022/04/23 06:07:29;;;;;;;4.20;3.80;;;15.80;61.80;;;;;;5018398;28;20034;-72
2022/04/23 06:09:56;;;;;;;4.10;3.47;;;15.80;61.80;;;;;;5021016;28;20037;-72
2022/04/23 06:12:23;;;;;;;4.50;3.90;;;15.80;61.80;;;;;;5021834;28;20049;-73
2022/04/23 06:14:50;;;;;;;5.15;3.70;;;15.80;61.90;;;;;;5019414;28;20041;-73
2022/04/23 06:17:25;;;;;;;4.55;3.85;;;15.80;61.90;;;;;;5020535;28;20041;-72
2022/04/23 06:19:52;;;;;;;3.95;3.55;;;15.80;61.90;;;;;;5019023;28;20045;-73
2022/04/23 06:22:21;;;;;;;4.70;3.72;;;15.80;62.00;;;;;;5017706;28;20100;-72
2022/04/23 06:25:07;;;;;;;3.80;3.40;;;15.80;61.90;;;;;;5014887;28;20051;-73
2022/04/23 06:27:34;;;;;;;4.13;3.33;;;15.80;62.00;;;;;;5025708;28;20045;-72
2022/04/23 06:30:02;;;;;;;4.50;3.60;;;15.80;61.90;;;;;;5012926;28;20129;-72
2022/04/23 06:32:36;;;;;;;6.22;3.78;;;15.80;62.00;;;;;;5020835;28;20071;-72
2022/04/23 06:35:06;;;;;;;4.40;3.60;;;15.80;62.00;;;;;;5014585;28;20046;-72
2022/04/23 06:37:41;;;;;;;4.95;3.65;;;15.80;62.20;;;;;;5017094;28;20056;-72
2022/04/23 06:40:12;;;;;;;4.15;3.75;;;15.80;62.20;;;;;;5013657;28;20052;-72
2022/04/23 06:42:40;;;;;;;4.45;3.67;;;15.80;62.20;;;;;;5020797;28;20065;-72
2022/04/23 06:45:10;;;;;;;4.13;3.65;;;15.80;62.20;;;;;;5016784;28;20049;-72
2022/04/23 06:47:37;;;;;;;4.35;3.88;;;15.80;62.20;;;;;;5018983;28;20116;-72
2022/04/23 06:50:11;;;;;;;3.90;3.53;;;15.80;62.10;;;;;;5009517;28;20377;-72
2022/04/23 06:52:39;;;;;;;4.38;3.50;;;15.80;62.00;;;;;;5018998;28;20045;-72
2022/04/23 06:55:10;;;;;;;4.65;3.90;;;15.80;62.10;;;;;;5016516;28;20393;-72
2022/04/23 06:57:44;;;;;;;4.32;3.75;;;15.80;62.20;;;;;;5011918;28;20042;-73
2022/04/23 07:00:30;;;;;;;4.47;3.70;;;15.80;62.10;;;;;;5015986;28;20061;-73
2022/04/23 07:02:57;;;;;;;4.45;3.65;;;15.80;62.30;;;;;;5015556;28;20057;-72
2022/04/23 07:05:29;;;;;;;4.13;3.50;;;15.80;62.20;;;;;;5000236;28;20054;-73
2022/04/23 07:08:12;;;;;;;4.97;3.90;;;15.80;62.20;;;;;;5019883;28;20488;-73
2022/04/23 07:10:40;;;;;;;4.15;3.47;;;15.80;62.20;;;;;;4999051;28;20390;-73
2022/04/23 07:13:10;;;;;;;4.22;3.83;;;15.80;62.20;;;;;;5015864;28;20045;-74
2022/04/23 07:15:40;;;;;;;4.28;3.50;;;15.80;62.20;;;;;;5018808;28;20159;-74
2022/04/23 07:18:10;;;;;;;3.92;3.33;;;15.90;62.20;;;;;;5011519;28;20052;-74
2022/04/23 07:20:40;;;;;;;4.55;3.90;;;15.80;62.10;;;;;;5012736;28;20126;-74
2022/04/23 07:25:57;;;;;;;3.97;3.58;;;15.90;62.30;;;;;;5026016;28;20069;-74
2022/04/23 07:28:24;;;;;;;4.63;3.70;;;15.90;62.20;;;;;;5026104;28;20125;-74
2022/04/23 07:30:54;;;;;;;3.80;3.40;;;15.90;62.20;;;;;;5022661;28;20075;-74
2022/04/23 07:39:01;;;;;;;4.30;3.70;;;15.90;62.20;;;;;;5016955;28;20051;-74
2022/04/23 07:41:45;;;;;;;5.10;4.10;;;15.90;62.30;;;;;;5015675;28;20045;-75
2022/04/23 07:44:18;;;;;;;4.22;3.50;;;15.90;62.40;;;;;;5023274;28;20122;-74
2022/04/23 07:46:49;;;;;;;4.70;3.70;;;15.90;62.20;;;;;;5030943;28;20041;-74
2022/04/23 07:49:21;;;;;;;4.47;3.55;;;15.90;62.20;;;;;;5033676;28;20041;-74
2022/04/23 07:52:07;;;;;;;4.38;3.70;;;15.90;62.20;;;;;;5032371;28;20052;-74
2022/04/23 07:54:43;;;;;;;4.43;3.70;;;15.90;62.20;;;;;;5022155;28;20045;-74
2022/04/23 07:57:11;;;;;;;3.97;3.58;;;15.90;62.30;;;;;;5002483;28;20033;-74
2022/04/23 07:59:45;;;;;;;3.78;3.38;;;15.90;62.20;;;;;;5003315;28;20452;-75
2022/04/23 08:02:13;;;;;;;4.00;3.60;;;15.90;62.20;;;;;;5008712;28;20064;-74
2022/04/23 08:04:47;;;;;;;5.38;3.60;;;15.90;62.20;;;;;;5000927;28;20132;-74
2022/04/23 08:07:32;;;;;;;5.07;3.75;;;15.90;62.20;;;;;;5000471;28;20589;-74
2022/04/23 08:10:02;;;;;;;4.25;3.65;;;16.00;62.40;;;;;;4996854;28;20051;-74
2022/04/23 08:12:39;;;;;;;4.18;3.75;;;16.00;62.30;;;;;;4998753;28;20034;-74
2022/04/23 08:15:07;;;;;;;6.00;3.53;;;16.00;62.30;;;;;;5000911;28;20046;-74
2022/04/23 08:17:44;;;;;;;4.00;3.50;;;16.00;62.40;;;;;;4981911;28;20057;-74
2022/04/23 08:20:13;;;;;;;5.07;3.40;;;15.90;62.20;;;;;;4996676;28;20501;-74
2022/04/23 08:22:40;;;;;;;3.70;3.30;;;16.00;62.40;;;;;;4999155;28;20044;-74
2022/04/23 08:25:09;;;;;;;4.00;3.47;;;16.00;62.40;;;;;;4996678;28;20054;-74
2022/04/23 08:27:50;;;;;;;4.07;3.58;;;16.00;62.40;;;;;;5001362;28;20065;-74
2022/04/23 08:30:34;;;;;;;4.47;3.63;;;16.00;62.40;;;;;;4996436;28;20039;-74
2022/04/23 08:33:10;;;;;;;4.30;3.72;;;16.00;62.40;;;;;;4993745;28;20132;-74
2022/04/23 08:35:38;;;;;;;3.92;3.53;;;16.00;62.40;;;;;;4998596;28;20054;-73
2022/04/23 08:38:10;;;;;;;3.90;3.50;;;16.00;62.40;;;;;;5000646;28;20481;-74
2022/04/23 08:40:40;;;;;;;3.63;3.33;;;16.00;62.50;;;;;;4999101;28;20065;-74
2022/04/23 08:43:08;;;;;;;4.60;3.50;;;16.10;62.60;;;;;;4998196;28;20803;-74
2022/04/23 08:45:50;;;;;;;3.97;3.50;;;16.00;62.50;;;;;;4995467;28;20045;-74
2022/04/23 08:48:19;;;;;;;3.97;3.45;;;16.10;62.60;;;;;;5000726;28;20042;-74
2022/04/23 08:51:07;;;;;;;3.92;3.40;;;16.10;62.60;;;;;;4993021;28;20131;-74
2022/04/23 08:53:38;;;;;;;4.25;3.72;;;16.10;62.60;;;;;;5000405;28;20046;-74
2022/04/23 08:56:11;;;;;;;4.07;3.40;;;16.10;62.60;;;;;;4976936;28;21529;-74
2022/04/23 08:58:40;;;;;;;4.43;3.63;;;16.10;62.60;;;;;;4998613;28;20042;-74
2022/04/23 09:01:11;;;;;;;4.13;3.63;;;16.10;62.60;;;;;;4976865;28;20053;-74
2022/04/23 09:03:41;;;;;;;4.22;3.60;;;16.10;62.50;;;;;;4999382;28;20052;-74
2022/04/23 09:06:10;;;;;;;4.75;3.55;;;16.10;62.50;;;;;;4995212;28;20041;-74
2022/04/23 09:08:36;;;;;;;3.90;3.50;;;16.10;62.50;;;;;;5019357;28;20049;-74
2022/04/23 09:11:06;;;;;;;3.85;3.45;;;16.10;62.50;;;;;;5017155;28;20045;-74
2022/04/23 09:13:47;;;;;;;4.57;3.75;;;16.20;62.60;;;;;;5016861;28;20112;-75
2022/04/23 09:24:45;;;;;;;3.92;3.42;;;16.20;62.60;;;;;;5016922;28;20048;-74
2022/04/23 09:27:15;;;;;;;4.43;3.70;;;16.10;62.50;;;;;;5011958;28;20136;-73
2022/04/23 09:29:59;;;;;;;3.88;3.47;;;16.20;62.60;;;;;;5023161;28;20041;-75
2022/04/23 09:32:37;;;;;;;4.00;3.60;;;16.20;62.50;;;;;;5020705;28;20052;-75
2022/04/23 09:35:12;;;;;;;3.83;3.33;;;16.20;62.50;;;;;;5024686;28;20067;-74
2022/04/23 09:40:27;;;;;;;3.95;3.53;;;16.20;62.50;;;;;;5029674;28;20115;-74
2022/04/23 09:42:59;;;;;;;3.85;3.45;;;16.20;62.50;;;;;;5025943;28;20056;-74
2022/04/23 09:45:33;;;;;;;4.00;3.60;;;16.20;62.50;;;;;;5007366;28;20416;-73
2022/04/23 09:48:18;;;;;;;4.38;3.55;;;16.20;62.50;;;;;;5031355;28;20067;-75
2022/04/23 09:51:02;;;;;;;3.97;3.55;;;16.20;62.50;;;;;;5029092;28;20077;-74
2022/04/23 09:53:36;;;;;;;4.22;3.83;;;16.20;62.50;;;;;;5023060;28;20045;-74
2022/04/23 09:56:07;;;;;;;3.92;3.58;;;16.20;62.60;;;;;;5021969;28;20045;-75
2022/04/23 09:58:34;;;;;;;3.88;3.50;;;16.20;62.60;;;;;;5017610;28;20036;-74
2022/04/23 10:01:12;;;;;;;4.40;3.88;;;16.20;62.60;;;;;;5014229;28;20049;-74
2022/04/23 10:03:46;;;;;;;4.25;3.85;;;16.20;62.60;;;;;;4986047;28;20070;-74
2022/04/23 10:06:22;;;;;;;4.18;3.67;;;16.30;62.80;;;;;;5002484;28;20128;-74
2022/04/23 10:08:51;;;;;;;4.00;3.60;;;16.20;62.60;;;;;;4998189;28;20039;-74
2022/04/23 10:11:22;;;;;;;4.28;3.88;;;16.30;62.80;;;;;;5003263;28;20065;-74
2022/04/23 10:13:53;;;;;;;4.30;3.90;;;16.30;62.70;;;;;;4980417;28;20053;-74
2022/04/23 10:16:22;;;;;;;4.33;3.93;;;16.30;62.80;;;;;;5001032;28;20449;-75
2022/04/23 10:18:56;;;;;;;4.88;3.88;;;16.30;62.90;;;;;;5000365;28;20046;-74
2022/04/23 10:21:49;;;;;;;3.78;3.35;;;16.30;62.80;;;;;;5000371;28;20080;-75
2022/04/23 10:24:33;;;;;;;4.28;3.83;;;16.30;62.80;;;;;;5001098;28;20046;-75
2022/04/23 10:27:07;;;;;;;4.25;3.85;;;16.30;62.90;;;;;;4979536;28;20129;-75
2022/04/23 10:29:50;;;;;;;4.53;3.92;;;16.30;62.80;;;;;;4999893;28;20042;-75
2022/04/23 10:32:22;;;;;;;3.75;3.40;;;16.30;62.80;;;;;;5000682;28;20046;-74
2022/04/23 10:34:49;;;;;;;;;;;16.30;62.90;;;;;;5002646;28;20037;-74
2022/04/23 10:37:17;;;;;;;4.50;4.10;;;16.40;62.90;;;;;;4998195;28;19921;-75
2022/04/23 10:40:16;;;;;;;4.57;3.97;;;16.30;62.80;;;;;;5001832;28;20070;-75
2022/04/23 10:43:08;;;;;;;4.53;3.85;;;16.30;62.90;;;;;;4995584;28;20124;-74
2022/04/23 10:45:36;;;;;;;4.07;3.75;;;16.40;62.90;;;;;;5000010;28;20061;-74
2022/04/23 10:48:32;;;;;;;3.85;3.45;;;16.40;62.90;;;;;;4995123;28;20104;-75
2022/04/23 10:51:18;;;;;;;4.70;4.20;;;16.40;62.90;;;;;;4989914;28;20069;-74
2022/04/23 10:53:55;;;;;;;4.07;3.60;;;16.40;62.90;;;;;;5000097;28;20038;-74
2022/04/23 10:56:35;;;;;;;3.92;3.53;;;16.40;62.80;;;;;;4992740;28;20042;-74
2022/04/23 10:59:39;;;;;;;4.60;3.83;;;16.40;62.80;;;;;;4993856;28;20061;-74
2022/04/23 11:02:13;;;;;;;4.20;3.80;;;16.40;62.80;;;;;;5007579;28;20112;-75
2022/04/23 11:13:27;;;;;;;4.20;3.80;;;16.40;62.90;;;;;;5017038;28;20052;-74
2022/04/23 11:16:14;;;;;;;4.25;3.85;;;16.40;62.80;;;;;;5020023;28;20033;-74
2022/04/23 11:18:42;;;;;;;4.25;3.85;;;16.40;62.80;;;;;;4998724;28;20085;-75
2022/04/23 11:21:14;;;;;;;3.95;3.58;;;16.40;62.80;;;;;;5021070;28;20099;-75
2022/04/23 11:23:49;;;;;;;4.35;3.88;;;16.40;62.80;;;;;;5016360;28;20041;-75
2022/04/23 11:26:22;;;;;;;4.15;3.70;;;16.50;63.00;;;;;;5021000;28;20044;-75
2022/04/23 11:28:58;;;;;;;3.78;3.38;;;16.50;62.90;;;;;;5016400;28;20103;-75
2022/04/23 11:31:33;;;;;;;4.07;3.67;;;16.50;62.90;;;;;;4997793;28;20065;-75
2022/04/23 11:34:13;;;;;;;4.07;3.60;;;16.50;62.90;;;;;;5015871;28;20053;-74
2022/04/23 11:36:43;;;;;;;4.78;4.07;;;16.50;62.90;;;;;;5022186;28;20091;-75
2022/04/23 11:39:13;;;;;;;3.90;3.50;;;16.50;63.00;;;;;;5021357;28;20053;-72
2022/04/23 11:41:42;;;;;;;4.03;3.45;;;16.50;62.90;;;;;;5004640;28;20045;-72
2022/04/23 11:44:14;;;;;;;3.72;3.33;;;16.50;62.90;;;;;;5032076;28;20037;-73
2022/04/23 11:46:49;;;;;;;4.05;3.65;;;16.50;62.80;;;;;;5015306;28;20045;-72
2022/04/23 11:49:29;;;;;;;4.03;3.60;;;16.50;62.80;;;;;;5014908;28;20120;-75
2022/04/23 11:52:02;;;;;;;3.88;3.10;;;16.50;62.80;;;;;;5029418;28;20128;-72
2022/04/23 11:54:48;;;;;;;4.22;3.53;;;16.50;62.80;;;;;;5025584;28;20127;-72
2022/04/23 11:57:19;;;;;;;3.53;3.22;;;16.50;62.80;;;;;;5023958;28;20033;-73
2022/04/23 11:59:50;;;;;;;3.85;3.42;;;16.50;62.80;;;;;;5014859;28;20057;-73
2022/04/23 12:02:35;;;;;;;3.65;3.28;;;16.50;62.80;;;;;;5020104;28;20061;-73
2022/04/23 12:05:05;;;;;;;4.22;3.10;;;16.50;62.70;;;;;;5003372;28;20041;-73
2022/04/23 12:07:47;;;;;;;4.15;3.40;;;16.50;62.80;;;;;;5019435;28;20041;-74
2022/04/23 12:10:27;;;;;;;3.70;3.25;;;16.50;62.70;;;;;;5019804;28;20057;-73
2022/04/23 12:13:06;;;;;;;3.92;3.25;;;16.60;62.80;;;;;;5017880;28;20124;-73
2022/04/23 12:15:36;;;;;;;3.42;3.13;;;16.50;62.80;;;;;;5019637;28;20045;-73
2022/04/23 12:18:14;;;;;;;3.90;2.90;;;16.50;62.70;;;;;;5020311;28;20447;-73
2022/04/23 12:20:48;;;;;;;3.47;3.17;;;16.60;62.80;;;;;;5001679;28;20068;-73
2022/04/23 12:23:19;;;;;;;3.25;2.85;;;16.50;62.70;;;;;;5008098;28;20041;-73
2022/04/23 12:25:46;;;;;;;3.60;3.00;;;16.60;62.80;;;;;;5021039;28;20120;-73
2022/04/23 12:42:15;;;;;;;3.30;2.90;;;16.60;62.70;;;;;;5021285;28;19927;-73
2022/04/23 12:44:49;;;;;;;3.28;2.90;;;16.60;62.70;;;;;;5011496;28;20046;-73
2022/04/23 12:47:17;;;;;;;3.22;2.92;;;16.60;62.70;;;;;;5019960;28;20069;-74
2022/04/23 12:49:46;;;;;;;3.30;3.00;;;16.60;62.90;;;;;;5017081;28;20071;-73
2022/04/23 12:52:44;;;;;;;3.40;3.10;;;16.60;62.60;;;;;;5022394;28;20494;-73
2022/04/23 12:55:17;;;;;;;3.42;3.13;;;16.60;62.70;;;;;;5022640;28;20045;-73
2022/04/23 12:57:46;;;;;;;3.28;2.97;;;16.60;62.60;;;;;;5022718;28;21782;-73
2022/04/23 13:00:16;;;;;;;3.30;3.00;;;16.60;62.60;;;;;;5024693;28;20045;-73
2022/04/23 13:02:47;;;;;;;5.43;3.00;;;16.60;62.60;;;;;;5024219;28;20077;-73
2022/04/23 13:05:33;;;;;;;4.45;2.90;;;16.60;62.60;;;;;;5021667;28;21003;-73
2022/04/23 13:10:47;;;;;;;3.78;2.90;;;16.60;62.50;;;;;;5020108;28;20037;-73
2022/04/23 13:13:16;;;;;;;4.40;2.92;;;16.60;62.60;;;;;;5001843;28;20052;-73
2022/04/23 13:15:43;;;;;;;3.03;2.72;;;16.60;62.60;;;;;;5019443;28;20048;-73
2022/04/23 13:18:10;;;;;;;3.20;2.80;;;16.60;62.60;;;;;;5023330;28;20116;-72
2022/04/23 13:20:47;;;;;;;3.50;3.00;;;16.60;62.50;;;;;;5022477;28;20041;-73
2022/04/23 13:23:23;;;;;;;3.03;2.72;;;16.60;62.50;;;;;;5024826;28;20048;-73
2022/04/23 13:25:52;;;;;;;3.55;3.10;;;16.60;62.50;;;;;;5005624;28;20079;-73
2022/04/23 13:28:22;;;;;;;3.67;3.08;;;16.60;62.50;;;;;;5023418;28;20037;-72
2022/04/23 13:30:49;;;;;;;3.53;2.97;;;16.60;62.50;;;;;;5028326;28;20096;-73
2022/04/23 13:33:35;;;;;;;3.10;2.63;;;16.60;62.50;;;;;;5026280;28;20114;-73
2022/04/23 13:36:02;;;;;;;3.05;2.78;;;16.60;62.50;;;;;;5025615;28;20088;-73
2022/04/23 13:38:44;;;;;;;3.38;2.85;;;16.60;62.50;;;;;;5024040;28;20050;-72
2022/04/23 13:41:18;;;;;;;3.20;2.70;;;16.60;62.50;;;;;;5032059;28;20043;-73
2022/04/23 13:43:47;;;;;;;2.88;2.58;;;16.60;62.50;;;;;;5040661;28;20056;-73
2022/04/23 13:46:15;;;;;;;2.90;2.60;;;16.60;62.50;;;;;;5037125;28;20129;-73
2022/04/23 13:48:48;;;;;;;3.25;2.80;;;16.60;62.50;;;;;;5022565;28;20092;-74
2022/04/23 13:51:23;;;;;;;3.70;3.20;;;16.60;62.50;;;;;;5006482;28;20042;-73
2022/04/23 13:53:50;;;;;;;3.00;2.70;;;16.60;62.50;;;;;;5024635;28;20099;-73
2022/04/23 13:56:35;;;;;;;2.67;2.42;;;16.60;62.50;;;;;;5020459;28;20045;-74
2022/04/23 13:59:02;;;;;;;3.22;2.78;;;16.70;62.50;;;;;;5022466;28;20143;-73
2022/04/23 14:01:38;;;;;;;3.15;2.85;;;16.60;62.40;;;;;;4995733;28;20050;-73
2022/04/23 14:10:07;;;;;;;3.30;2.80;;;16.70;62.50;;;;;;5021017;28;20058;-72